Portada
METAR-TAF:

METAR-TAF

Aeropuertos :

Aeropuerto Internacional de Györ-Pér

Győr, Hungría

latitud: 47-37-28N, longitud: 017-48-49E, altitud: 129 m

Observación

El informe se hizo hace 44 minutos, a las 02:15 UTC
Viento 13 kt del oeste-noroeste
Temperatura 2°C
Humedad 80%
Presión 1004 hPa
Visibilidad 10 km o más
sin nubes por debajo de 1500 m y sin presencia de cumulonimbus.

METAR: LHPR 270215Z AUTO 29013KT CAVOK 02/M01 Q1004

Hora: 03:59 (02:59 UTC)

Pronóstico

El informe se hizo hace 9 horas y 44 minutos, a las 17:15 UTC
Pronóstico válido del 26 a las 18 UTC al 27 a las 03 UTC
Viento 8 kt del oeste
Visibilidad 10 km o más
sin nubes por debajo de 1500 m y sin presencia de cumulonimbus.
Evolucionando progresivamente
del 26 a las 22 UTC al 27 a las 01 UTC
Viento 15 kt del noroeste con ráfagas de 25 kt

TAF: LHPR 261715Z 2618/2703 27008KT CAVOK BECMG 2622/2701 31015G25KT

Observaciones y pronósticos meteorológicos de más de 4000 aeropuertos (mensajes METAR y TAF).

Los puntos amarillos y rojos representan las estaciones disponibles.

Ponga el ratón en el punto deseado para ver el nombre de la estación.

Haga clic para ver las observaciones y los pronósticos meteorológicos.

Para cambiar el mapa : haga clic en los botones verdes con una cruz de color negro para hacer un zoom, en el botón verde con un guión para alejar o en las flechas verdes para mapas adyacentes.


METAR-TAF: